createdAt,value
2022-10-14T00:00:40.886Z,12.82
2022-10-14T00:01:41.063Z,12.81
2022-10-14T00:02:40.922Z,12.79
2022-10-14T00:03:40.868Z,12.79
2022-10-14T00:04:40.870Z,12.79
2022-10-14T00:05:40.879Z,12.78
2022-10-14T00:06:40.872Z,12.77
2022-10-14T00:07:40.865Z,12.77
2022-10-14T00:08:40.819Z,12.78
2022-10-14T00:09:40.895Z,12.75
2022-10-14T00:10:40.842Z,12.77
2022-10-14T00:11:40.810Z,12.75
2022-10-14T00:12:40.806Z,12.75
2022-10-14T00:13:40.790Z,12.75
2022-10-14T00:14:40.778Z,12.78
2022-10-14T00:15:40.818Z,12.77
2022-10-14T00:16:40.744Z,12.77
2022-10-14T00:17:40.729Z,12.77
2022-10-14T00:18:40.768Z,12.77
2022-10-14T00:19:40.832Z,12.77
2022-10-14T00:20:40.780Z,12.78
2022-10-14T00:21:40.746Z,12.77
2022-10-14T00:22:40.681Z,12.78
2022-10-14T00:23:40.822Z,12.78
2022-10-14T00:24:40.712Z,12.77
2022-10-14T00:25:40.670Z,12.77
2022-10-14T00:26:41.006Z,12.77
2022-10-14T00:27:40.688Z,12.78
2022-10-14T00:28:40.832Z,12.78
2022-10-14T00:29:40.616Z,12.78
2022-10-14T00:30:40.724Z,12.79
2022-10-14T00:31:40.620Z,12.77
2022-10-14T00:32:40.616Z,12.77
2022-10-14T00:33:40.602Z,12.77
2022-10-14T00:34:40.687Z,12.78
2022-10-14T00:35:40.848Z,12.78
2022-10-14T00:36:40.576Z,12.79
2022-10-14T00:37:40.546Z,12.79
2022-10-14T00:38:40.542Z,12.79
2022-10-14T00:39:40.833Z,12.79
2022-10-14T00:40:40.631Z,12.78
2022-10-14T00:41:40.592Z,12.79
2022-10-14T00:42:40.608Z,12.78
2022-10-14T00:43:40.747Z,12.79
2022-10-14T00:44:40.516Z,12.78
2022-10-14T00:45:40.489Z,12.79
2022-10-14T00:46:40.905Z,12.81
2022-10-14T00:47:40.463Z,12.79
2022-10-14T00:48:40.488Z,12.79
2022-10-14T00:49:40.698Z,12.79
2022-10-14T00:50:40.397Z,12.79
2022-10-14T00:51:40.449Z,12.81
2022-10-14T00:52:40.522Z,12.79
2022-10-14T00:53:40.401Z,12.79
2022-10-14T00:54:40.535Z,12.81
2022-10-14T00:55:40.377Z,12.81
2022-10-14T00:56:40.567Z,12.81
2022-10-14T00:57:40.531Z,12.82
2022-10-14T00:58:40.519Z,12.82
2022-10-14T00:59:40.466Z,12.82
2022-10-14T01:00:40.616Z,12.84
2022-10-14T01:01:40.383Z,12.85
2022-10-14T01:02:40.509Z,12.85
2022-10-14T01:03:40.397Z,12.82
2022-10-14T01:04:40.361Z,12.84
2022-10-14T01:05:40.259Z,12.85
2022-10-14T01:06:40.254Z,12.85
2022-10-14T01:07:40.254Z,12.85
2022-10-14T01:08:40.495Z,12.85
2022-10-14T01:09:40.277Z,12.87
2022-10-14T01:10:40.186Z,12.87
2022-10-14T01:11:40.509Z,12.87
2022-10-14T01:12:40.246Z,12.87
2022-10-14T01:13:40.212Z,12.87
2022-10-14T01:14:40.150Z,12.87
2022-10-14T01:15:40.173Z,12.87
2022-10-14T01:16:40.241Z,12.89
2022-10-14T01:17:40.691Z,12.87
2022-10-14T01:18:40.160Z,12.87
2022-10-14T01:19:40.642Z,12.88
2022-10-14T01:20:40.116Z,12.89
2022-10-14T01:21:40.352Z,12.89
2022-10-14T01:22:40.208Z,12.88
2022-10-14T01:23:40.308Z,12.89
2022-10-14T01:24:40.074Z,12.88
2022-10-14T01:25:40.061Z,12.89
2022-10-14T01:26:40.560Z,12.92
2022-10-14T01:27:40.069Z,12.92
2022-10-14T01:28:40.120Z,12.89
2022-10-14T01:29:40.040Z,12.89
2022-10-14T01:30:40.085Z,12.93
2022-10-14T01:31:40.031Z,12.92
2022-10-14T01:32:40.087Z,12.92
2022-10-14T01:33:40.105Z,12.93
2022-10-14T01:34:40.148Z,12.93
2022-10-14T01:35:40.000Z,12.93
2022-10-14T01:36:39.961Z,12.93
2022-10-14T01:37:40.131Z,12.95
2022-10-14T01:38:40.082Z,12.93
2022-10-14T01:39:40.193Z,12.95
2022-10-14T01:40:40.101Z,12.93
2022-10-14T01:41:40.021Z,12.95
2022-10-14T01:42:39.905Z,12.95
2022-10-14T01:43:40.271Z,12.96
2022-10-14T01:44:39.876Z,12.95
2022-10-14T01:45:39.922Z,12.95
2022-10-14T01:46:40.037Z,12.95
2022-10-14T01:47:40.084Z,12.96
2022-10-14T01:48:39.966Z,12.96
2022-10-14T01:49:39.889Z,12.96
2022-10-14T01:50:39.801Z,12.96
2022-10-14T01:51:39.961Z,12.97
2022-10-14T01:52:39.805Z,12.96
2022-10-14T01:53:39.848Z,12.99
2022-10-14T01:54:40.168Z,12.97
2022-10-14T01:55:40.125Z,12.97
2022-10-14T01:56:40.846Z,12.97
2022-10-14T01:57:40.000Z,12.96
2022-10-14T01:58:39.967Z,12.97
2022-10-14T01:59:39.754Z,12.99
2022-10-14T02:00:39.867Z,12.99
2022-10-14T02:01:39.852Z,12.99
2022-10-14T02:02:39.739Z,12.99
2022-10-14T02:03:40.107Z,12.99
2022-10-14T02:04:39.687Z,13.00
2022-10-14T02:05:39.902Z,12.99
2022-10-14T02:06:39.985Z,13.02
2022-10-14T02:07:39.720Z,13.00
2022-10-14T02:08:39.657Z,13.00
2022-10-14T02:09:40.092Z,13.02
2022-10-14T02:10:39.677Z,13.00
2022-10-14T02:11:39.606Z,13.00
2022-10-14T02:12:39.954Z,13.00
2022-10-14T02:13:40.022Z,13.00
2022-10-14T02:14:39.780Z,13.02
2022-10-14T02:15:39.659Z,13.02
2022-10-14T02:16:39.956Z,13.00
2022-10-14T02:17:39.695Z,13.02
2022-10-14T02:18:39.688Z,13.00
2022-10-14T02:19:39.867Z,13.02
2022-10-14T02:20:39.656Z,13.02
2022-10-14T02:21:39.552Z,13.02
2022-10-14T02:22:39.812Z,13.02
2022-10-14T02:23:39.906Z,13.02
2022-10-14T02:24:39.489Z,13.02
2022-10-14T02:25:39.537Z,13.00
2022-10-14T02:26:39.752Z,13.02
2022-10-14T02:27:39.673Z,13.02
2022-10-14T02:28:39.747Z,13.02
2022-10-14T02:29:39.458Z,13.02
2022-10-14T02:30:39.601Z,13.00
2022-10-14T02:31:39.422Z,13.02
2022-10-14T02:32:39.402Z,13.00
2022-10-14T02:33:39.422Z,13.02
2022-10-14T02:34:39.508Z,13.02
2022-10-14T02:35:39.367Z,13.02
2022-10-14T02:36:39.413Z,13.03
2022-10-14T02:37:39.572Z,13.03
2022-10-14T02:38:39.438Z,13.03
2022-10-14T02:39:39.348Z,13.03
2022-10-14T02:40:39.841Z,13.04
2022-10-14T02:41:39.515Z,13.03
2022-10-14T02:42:39.407Z,13.04
2022-10-14T02:43:39.626Z,13.04
2022-10-14T02:44:39.329Z,13.04
2022-10-14T02:45:39.337Z,13.06
2022-10-14T02:46:39.361Z,13.04
2022-10-14T02:47:39.455Z,13.04
2022-10-14T02:48:39.239Z,13.04
2022-10-14T02:49:39.443Z,13.03
2022-10-14T02:50:39.466Z,13.04
2022-10-14T02:51:39.256Z,13.06
2022-10-14T02:52:39.254Z,13.03
2022-10-14T02:53:39.326Z,13.04
2022-10-14T02:54:39.417Z,13.06
2022-10-14T02:55:39.532Z,13.04
2022-10-14T02:56:39.174Z,13.04
2022-10-14T02:57:39.286Z,13.04
2022-10-14T02:58:39.213Z,13.04
2022-10-14T02:59:39.136Z,13.04
2022-10-14T03:00:39.548Z,13.04
2022-10-14T03:01:39.526Z,13.04
2022-10-14T03:02:39.119Z,13.03
2022-10-14T03:03:39.541Z,13.04
2022-10-14T03:04:39.247Z,13.03
2022-10-14T03:05:39.273Z,13.03
2022-10-14T03:06:39.083Z,13.04
2022-10-14T03:07:39.324Z,13.03
2022-10-14T03:08:39.220Z,13.04
2022-10-14T03:09:39.466Z,13.04
2022-10-14T03:10:39.157Z,13.03
2022-10-14T03:11:39.007Z,13.04
2022-10-14T03:12:38.990Z,13.03
2022-10-14T03:13:39.187Z,13.04
2022-10-14T03:14:39.147Z,13.03
2022-10-14T03:15:39.655Z,13.04
2022-10-14T03:16:39.210Z,13.04
2022-10-14T03:17:39.046Z,13.04
2022-10-14T03:18:39.120Z,13.03
2022-10-14T03:19:38.954Z,13.04
2022-10-14T03:20:39.226Z,13.03
2022-10-14T03:21:39.103Z,13.04
2022-10-14T03:22:39.172Z,13.04
2022-10-14T03:23:39.423Z,13.04
2022-10-14T03:24:38.881Z,13.04
2022-10-14T03:25:38.907Z,13.03
2022-10-14T03:26:38.879Z,13.04
2022-10-14T03:27:39.116Z,13.03
2022-10-14T03:28:38.914Z,13.04
2022-10-14T03:29:38.837Z,13.04
2022-10-14T03:30:38.946Z,13.04
2022-10-14T03:31:38.781Z,13.02
2022-10-14T03:32:38.945Z,13.03
2022-10-14T03:33:39.160Z,13.04
2022-10-14T03:34:38.949Z,13.04
2022-10-14T03:35:38.867Z,13.04
2022-10-14T03:36:38.787Z,13.06
2022-10-14T03:37:38.867Z,13.06
2022-10-14T03:38:38.721Z,13.04
2022-10-14T03:39:39.151Z,13.06
2022-10-14T03:40:39.474Z,13.04
2022-10-14T03:41:38.750Z,13.06
2022-10-14T03:42:38.705Z,13.04
2022-10-14T03:43:38.689Z,13.04
2022-10-14T03:44:38.893Z,13.03
2022-10-14T03:45:38.912Z,13.04
2022-10-14T03:46:38.775Z,13.02
2022-10-14T03:47:38.739Z,13.04
2022-10-14T03:48:38.706Z,13.04
2022-10-14T03:49:38.826Z,13.03
2022-10-14T03:50:38.884Z,13.03
2022-10-14T03:51:38.685Z,13.03
2022-10-14T03:52:38.584Z,13.03
2022-10-14T03:53:38.653Z,13.03
2022-10-14T03:54:38.650Z,13.03
2022-10-14T03:55:38.579Z,13.02
2022-10-14T03:56:38.737Z,13.03
2022-10-14T03:57:38.932Z,13.03
2022-10-14T03:58:38.522Z,13.02
2022-10-14T03:59:38.726Z,13.02
2022-10-14T04:00:38.492Z,13.03
2022-10-14T04:01:38.618Z,13.02
2022-10-14T04:02:38.577Z,13.03
2022-10-14T04:03:38.650Z,13.03
2022-10-14T04:04:38.487Z,13.03
2022-10-14T04:05:38.696Z,13.03
2022-10-14T04:06:38.632Z,13.04
2022-10-14T04:07:38.797Z,13.04
2022-10-14T04:08:38.545Z,13.03
2022-10-14T04:09:38.602Z,13.03
2022-10-14T04:10:38.440Z,13.03
2022-10-14T04:11:38.430Z,13.03
2022-10-14T04:12:38.578Z,13.04
2022-10-14T04:13:38.714Z,13.03
2022-10-14T04:14:38.596Z,13.02
2022-10-14T04:15:38.645Z,13.03
2022-10-14T04:16:38.562Z,13.03
2022-10-14T04:17:38.377Z,13.03
2022-10-14T04:18:38.463Z,13.03
2022-10-14T04:19:38.303Z,13.03
2022-10-14T04:20:38.366Z,13.03
2022-10-14T04:21:38.455Z,13.03
2022-10-14T04:22:38.673Z,13.04
2022-10-14T04:23:38.277Z,13.03
2022-10-14T04:24:38.528Z,13.04
2022-10-14T04:25:38.236Z,13.06
2022-10-14T04:26:38.433Z,13.04
2022-10-14T04:27:38.818Z,13.06
2022-10-14T04:28:38.574Z,13.06
2022-10-14T04:29:38.307Z,13.04
2022-10-14T04:30:38.330Z,13.04
2022-10-14T04:31:38.312Z,13.04
2022-10-14T04:32:38.231Z,13.03
2022-10-14T04:33:38.691Z,13.03
2022-10-14T04:34:38.334Z,13.02
2022-10-14T04:35:38.317Z,13.03
2022-10-14T04:36:38.527Z,13.03
2022-10-14T04:37:38.262Z,13.04
2022-10-14T04:38:38.286Z,13.03
2022-10-14T04:39:38.240Z,13.04
2022-10-14T04:40:38.252Z,13.06
2022-10-14T04:41:38.088Z,13.03
2022-10-14T04:42:38.190Z,13.04
2022-10-14T04:43:38.242Z,13.04
2022-10-14T04:44:38.270Z,13.03
2022-10-14T04:45:38.345Z,13.03
2022-10-14T04:46:38.565Z,13.04
2022-10-14T04:47:38.238Z,13.03
2022-10-14T04:48:38.338Z,13.04
2022-10-14T04:49:38.444Z,13.03
2022-10-14T04:50:38.435Z,13.03
2022-10-14T04:51:38.198Z,13.04
2022-10-14T04:52:38.349Z,13.04
2022-10-14T04:53:37.949Z,13.03
2022-10-14T04:54:38.010Z,13.03
2022-10-14T04:55:37.983Z,13.03
2022-10-14T04:56:38.052Z,13.02
2022-10-14T04:57:38.159Z,13.02
2022-10-14T04:58:38.020Z,13.02
2022-10-14T04:59:38.206Z,13.03
2022-10-14T05:00:37.893Z,13.04
2022-10-14T05:01:38.169Z,13.03
2022-10-14T05:02:37.970Z,13.06
2022-10-14T05:03:38.335Z,13.03
2022-10-14T05:04:37.929Z,13.04
2022-10-14T05:05:37.954Z,13.04
2022-10-14T05:06:37.856Z,13.06
2022-10-14T05:07:37.857Z,13.04
2022-10-14T05:08:37.868Z,13.06
2022-10-14T05:09:38.056Z,13.07
2022-10-14T05:10:37.980Z,13.07
2022-10-14T05:11:37.835Z,13.09
2022-10-14T05:12:38.022Z,13.04
2022-10-14T05:13:37.966Z,13.09
2022-10-14T05:14:37.884Z,13.07
2022-10-14T05:15:37.824Z,13.06
2022-10-14T05:16:37.867Z,13.06
2022-10-14T05:17:37.762Z,13.09
2022-10-14T05:18:38.070Z,13.06
2022-10-14T05:19:37.983Z,13.09
2022-10-14T05:20:37.758Z,13.09
2022-10-14T05:21:38.018Z,13.09
2022-10-14T05:22:37.842Z,13.11
2022-10-14T05:23:37.696Z,13.09
2022-10-14T05:24:37.832Z,13.09
2022-10-14T05:25:37.803Z,13.07
2022-10-14T05:26:37.867Z,13.09
2022-10-14T05:27:37.967Z,13.07
2022-10-14T05:28:37.972Z,13.09
2022-10-14T05:29:37.760Z,13.09
2022-10-14T05:30:37.958Z,13.09
2022-10-14T05:31:37.722Z,13.07
2022-10-14T05:32:37.692Z,13.11
2022-10-14T05:33:37.598Z,13.09
2022-10-14T05:34:37.574Z,13.11
2022-10-14T05:35:57.548Z,13.09
2022-10-14T05:36:37.943Z,13.09
2022-10-14T05:37:37.747Z,13.11
2022-10-14T05:38:37.554Z,13.09
2022-10-14T05:39:37.589Z,13.07
2022-10-14T05:40:37.846Z,13.09
2022-10-14T05:41:37.597Z,13.11
2022-10-14T05:42:38.054Z,13.11
2022-10-14T05:43:37.684Z,13.11
2022-10-14T05:44:37.567Z,13.11
2022-10-14T05:45:38.056Z,13.11
2022-10-14T05:46:37.758Z,13.11
2022-10-14T05:47:37.598Z,13.11
2022-10-14T05:48:37.411Z,13.12
2022-10-14T05:49:37.432Z,13.12
2022-10-14T05:50:37.493Z,13.14
2022-10-14T05:51:37.506Z,13.12
2022-10-14T05:52:37.618Z,13.14
2022-10-14T05:53:37.502Z,13.12
2022-10-14T05:54:37.546Z,13.14
2022-10-14T05:55:37.464Z,13.14
2022-10-14T05:56:37.749Z,13.12
2022-10-14T05:57:37.754Z,13.14
2022-10-14T05:58:37.450Z,13.12
2022-10-14T05:59:37.485Z,13.14
2022-10-14T06:00:37.367Z,13.14
2022-10-14T06:01:37.331Z,13.14
2022-10-14T06:02:37.327Z,13.15
2022-10-14T06:03:37.779Z,13.15
2022-10-14T06:04:37.420Z,13.15
2022-10-14T06:05:37.330Z,13.14
2022-10-14T06:06:37.301Z,13.17
2022-10-14T06:07:37.250Z,13.15
2022-10-14T06:08:37.356Z,13.14
2022-10-14T06:09:37.439Z,13.17
2022-10-14T06:10:37.248Z,13.17
2022-10-14T06:11:37.342Z,13.17
2022-10-14T06:12:37.240Z,13.18
2022-10-14T06:13:37.195Z,13.18
2022-10-14T06:14:37.513Z,13.20
2022-10-14T06:15:37.376Z,13.20
2022-10-14T06:16:38.216Z,13.18
2022-10-14T06:17:37.282Z,13.21
2022-10-14T06:18:37.168Z,13.20
2022-10-14T06:19:37.163Z,13.21
2022-10-14T06:20:37.222Z,13.20
2022-10-14T06:21:37.650Z,13.22
2022-10-14T06:22:37.156Z,13.24
2022-10-14T06:23:37.309Z,13.25
2022-10-14T06:24:37.555Z,13.24
2022-10-14T06:25:37.162Z,13.25
2022-10-14T06:26:37.533Z,13.25
2022-10-14T06:27:37.120Z,13.27
2022-10-14T06:28:37.251Z,13.25
2022-10-14T06:29:37.005Z,13.27
2022-10-14T06:30:37.021Z,13.29
2022-10-14T06:31:37.095Z,13.30
2022-10-14T06:32:37.038Z,13.29
2022-10-14T06:33:37.174Z,13.30
2022-10-14T06:34:37.050Z,13.30
2022-10-14T06:35:37.155Z,13.32
2022-10-14T06:36:36.959Z,13.33
2022-10-14T06:37:37.135Z,13.32
2022-10-14T06:38:36.956Z,13.36
2022-10-14T06:39:36.999Z,13.33
2022-10-14T06:40:37.110Z,13.36
2022-10-14T06:41:36.920Z,13.37
2022-10-14T06:42:36.893Z,13.36
2022-10-14T06:43:36.939Z,13.37
2022-10-14T06:44:37.087Z,13.38
2022-10-14T06:45:36.890Z,13.37
2022-10-14T06:46:36.891Z,13.40
2022-10-14T06:47:36.859Z,13.40
2022-10-14T06:48:36.908Z,13.41
2022-10-14T06:49:36.825Z,13.41
2022-10-14T06:50:36.885Z,13.41
2022-10-14T06:51:36.830Z,13.43
2022-10-14T06:52:36.773Z,13.44
2022-10-14T06:53:36.978Z,13.44
2022-10-14T06:54:39.389Z,13.46
2022-10-14T06:55:36.905Z,13.46
2022-10-14T06:56:36.840Z,13.46
2022-10-14T06:57:37.179Z,13.49
2022-10-14T06:58:36.893Z,13.52
2022-10-14T06:59:36.786Z,13.52
2022-10-14T07:00:36.946Z,13.54
2022-10-14T07:01:36.998Z,13.54
2022-10-14T07:02:36.927Z,13.54
2022-10-14T07:03:36.937Z,13.54
2022-10-14T07:04:36.703Z,13.55
2022-10-14T07:05:36.897Z,13.55
2022-10-14T07:06:36.688Z,13.56
2022-10-14T07:07:36.666Z,13.58
2022-10-14T07:08:36.824Z,13.61
2022-10-14T07:09:36.926Z,13.61
2022-10-14T07:10:36.952Z,13.65
2022-10-14T07:11:36.815Z,13.65
2022-10-14T07:12:36.617Z,13.67
2022-10-14T07:13:36.600Z,13.69
2022-10-14T07:14:37.170Z,13.71
2022-10-14T07:15:36.626Z,13.73
2022-10-14T07:16:36.589Z,13.74
2022-10-14T07:17:36.547Z,13.74
2022-10-14T07:18:36.539Z,13.77
2022-10-14T07:19:36.713Z,13.79
2022-10-14T07:20:36.630Z,13.80
2022-10-14T07:21:36.898Z,13.80
2022-10-14T07:22:39.004Z,13.81
2022-10-14T07:23:36.776Z,13.80
2022-10-14T07:24:37.124Z,13.80
2022-10-14T07:25:36.487Z,13.80
2022-10-14T07:26:36.463Z,13.79
2022-10-14T07:27:36.498Z,13.76
2022-10-14T07:28:36.499Z,13.76
2022-10-14T07:29:36.443Z,13.76
2022-10-14T07:30:36.451Z,13.76
2022-10-14T07:31:36.507Z,13.76
2022-10-14T07:32:36.455Z,13.77
2022-10-14T07:34:36.531Z,13.74
2022-10-14T07:35:36.411Z,13.76
2022-10-14T07:36:36.374Z,13.76
2022-10-14T07:37:37.058Z,13.79
2022-10-14T07:38:36.398Z,13.79
2022-10-14T07:39:36.392Z,13.77
2022-10-14T07:40:36.368Z,13.79
2022-10-14T07:41:36.649Z,13.79
2022-10-14T07:42:36.428Z,13.76
2022-10-14T07:43:36.320Z,13.73
2022-10-14T07:44:36.350Z,13.73
2022-10-14T07:45:36.816Z,13.77
2022-10-14T07:46:36.294Z,13.77
2022-10-14T07:47:36.354Z,13.80
2022-10-14T07:48:52.576Z,13.83
2022-10-14T07:49:36.269Z,13.83
2022-10-14T07:50:36.223Z,13.87
2022-10-14T07:51:36.472Z,13.88
2022-10-14T07:52:36.315Z,13.89
2022-10-14T07:53:36.237Z,13.89
2022-10-14T07:54:36.322Z,13.89
2022-10-14T07:55:36.673Z,13.91
2022-10-14T07:56:36.443Z,13.91
2022-10-14T07:57:36.391Z,13.92
2022-10-14T07:58:39.916Z,13.92
2022-10-14T07:59:36.346Z,13.94
2022-10-14T08:00:36.131Z,13.96
2022-10-14T08:01:36.183Z,13.98
2022-10-14T08:02:36.280Z,14.01
2022-10-14T08:03:36.333Z,14.04
2022-10-14T08:04:36.109Z,14.06
2022-10-14T08:05:38.589Z,14.09
2022-10-14T08:06:36.076Z,14.06
2022-10-14T08:07:36.062Z,14.02
2022-10-14T08:08:36.078Z,14.01
2022-10-14T08:09:36.063Z,14.02
2022-10-14T08:10:36.062Z,14.02
2022-10-14T08:11:36.040Z,14.04
2022-10-14T08:12:36.126Z,14.02
2022-10-14T08:13:35.992Z,14.04
2022-10-14T08:14:36.057Z,14.06
2022-10-14T08:15:36.027Z,14.04
2022-10-14T08:16:35.994Z,14.04
2022-10-14T08:17:35.979Z,14.06
2022-10-14T08:18:36.077Z,14.06
2022-10-14T08:19:36.166Z,14.06
2022-10-14T08:20:35.940Z,14.04
2022-10-14T08:21:36.005Z,14.06
2022-10-14T08:22:36.784Z,14.06
2022-10-14T08:23:36.138Z,14.09
2022-10-14T08:24:36.354Z,14.06
2022-10-14T08:25:35.937Z,14.07
2022-10-14T08:26:36.022Z,14.09
2022-10-14T08:27:36.306Z,14.12
2022-10-14T08:28:35.975Z,14.13
2022-10-14T08:29:35.968Z,14.14
2022-10-14T08:30:35.859Z,14.14
2022-10-14T08:31:36.334Z,14.19
2022-10-14T08:32:35.866Z,14.20
2022-10-14T08:33:35.863Z,14.25
2022-10-14T08:34:36.380Z,14.27
2022-10-14T08:35:36.110Z,14.29
2022-10-14T08:36:35.827Z,14.32
2022-10-14T08:37:35.779Z,14.32
2022-10-14T08:38:35.816Z,14.31
2022-10-14T08:39:35.980Z,14.32
2022-10-14T08:40:35.735Z,14.34
2022-10-14T08:41:35.740Z,14.35
2022-10-14T08:42:35.839Z,14.37
2022-10-14T08:43:35.813Z,14.38
2022-10-14T08:44:36.125Z,14.39
2022-10-14T08:45:36.042Z,14.42
2022-10-14T08:46:36.032Z,14.44
2022-10-14T08:47:35.672Z,14.47
2022-10-14T08:48:35.700Z,14.49
2022-10-14T08:49:35.932Z,14.53
2022-10-14T08:50:35.703Z,14.54
2022-10-14T08:51:35.673Z,14.61
2022-10-14T08:52:37.776Z,14.62
2022-10-14T08:53:35.609Z,14.62
2022-10-14T08:54:35.808Z,14.65
2022-10-14T08:55:35.741Z,14.67
2022-10-14T08:56:35.588Z,14.67
2022-10-14T08:57:35.854Z,14.68
2022-10-14T08:58:35.774Z,14.69
2022-10-14T08:59:35.767Z,14.67
2022-10-14T09:00:35.536Z,14.69
2022-10-14T09:01:35.527Z,14.71
2022-10-14T09:02:35.470Z,14.74
2022-10-14T09:03:35.520Z,14.75
2022-10-14T09:04:35.714Z,14.81
2022-10-14T09:05:35.563Z,14.81
2022-10-14T09:06:35.701Z,14.86
2022-10-14T09:07:35.456Z,14.86
2022-10-14T09:08:35.471Z,14.87
2022-10-14T09:09:35.499Z,14.87
2022-10-14T09:10:35.432Z,14.87
2022-10-14T09:11:35.419Z,14.88
2022-10-14T09:12:35.751Z,14.90
2022-10-14T09:13:35.410Z,14.87
2022-10-14T09:14:35.610Z,14.84
2022-10-14T09:15:35.606Z,14.86
2022-10-14T09:16:35.408Z,14.86
2022-10-14T09:17:37.781Z,14.87
2022-10-14T09:18:35.368Z,14.88
2022-10-14T09:19:35.567Z,14.91
2022-10-14T09:20:35.469Z,14.91
2022-10-14T09:22:35.473Z,14.91
2022-10-14T09:23:35.353Z,14.91
2022-10-14T09:24:35.425Z,14.90
2022-10-14T09:25:35.344Z,14.91
2022-10-14T09:26:35.574Z,14.90
2022-10-14T09:27:35.416Z,14.95
2022-10-14T09:28:35.272Z,15.02
2022-10-14T09:29:35.524Z,15.08
2022-10-14T09:30:35.276Z,15.15
2022-10-14T09:31:35.356Z,15.20
2022-10-14T09:32:35.370Z,15.26
2022-10-14T09:33:38.290Z,15.30
2022-10-14T09:34:35.341Z,15.24
2022-10-14T09:35:35.387Z,15.26
2022-10-14T09:36:35.411Z,15.28
2022-10-14T09:37:35.473Z,15.31
2022-10-14T09:38:35.168Z,15.33
2022-10-14T09:39:35.282Z,15.31
2022-10-14T09:40:35.239Z,15.31
2022-10-14T09:41:35.101Z,15.31
2022-10-14T09:42:35.221Z,15.33
2022-10-14T09:43:35.218Z,15.36
2022-10-14T09:44:35.196Z,15.36
2022-10-14T09:45:35.114Z,15.35
2022-10-14T09:46:35.435Z,15.35
2022-10-14T09:47:35.034Z,15.30
2022-10-14T09:48:35.030Z,15.33
2022-10-14T09:49:35.226Z,15.36
2022-10-14T09:50:35.009Z,15.39
2022-10-14T09:51:35.164Z,15.42
2022-10-14T09:52:35.009Z,15.42
2022-10-14T09:53:35.005Z,15.43
2022-10-14T09:54:35.272Z,15.46
2022-10-14T09:55:35.018Z,15.46
2022-10-14T09:56:38.994Z,15.48
2022-10-14T09:57:35.015Z,15.49
2022-10-14T09:58:34.946Z,15.46
2022-10-14T09:59:34.940Z,15.46
2022-10-14T10:00:34.928Z,15.48
2022-10-14T10:01:34.925Z,15.48
2022-10-14T10:02:34.893Z,15.48
2022-10-14T10:03:35.319Z,15.46
2022-10-14T10:04:34.898Z,15.48
2022-10-14T10:05:34.907Z,15.46
2022-10-14T10:06:35.606Z,15.45
2022-10-14T10:07:34.876Z,15.39
2022-10-14T10:08:34.853Z,15.41
2022-10-14T10:09:34.922Z,15.38
2022-10-14T10:10:35.179Z,15.35
2022-10-14T10:11:35.225Z,15.36
2022-10-14T10:12:34.958Z,15.36
2022-10-14T10:13:34.907Z,15.36
2022-10-14T10:14:35.155Z,15.38
2022-10-14T10:15:34.818Z,15.38
2022-10-14T10:16:35.013Z,15.41
2022-10-14T10:17:34.947Z,15.39
2022-10-14T10:18:34.916Z,15.41
2022-10-14T10:19:34.890Z,15.43
2022-10-14T10:20:34.940Z,15.42
2022-10-14T10:21:34.750Z,15.43
2022-10-14T10:22:34.829Z,15.43
2022-10-14T10:23:34.708Z,15.46
2022-10-14T10:24:34.814Z,15.48
2022-10-14T10:25:34.810Z,15.45
2022-10-14T10:26:34.755Z,15.45
2022-10-14T10:27:34.824Z,15.46
2022-10-14T10:28:34.775Z,15.48
2022-10-14T10:29:34.758Z,15.48
2022-10-14T10:30:34.918Z,15.49
2022-10-14T10:31:34.813Z,15.46
2022-10-14T10:32:34.921Z,15.45
2022-10-14T10:33:34.839Z,15.45
2022-10-14T10:34:34.669Z,15.43
2022-10-14T10:35:35.356Z,15.39
2022-10-14T10:36:34.780Z,15.41
2022-10-14T10:37:34.774Z,15.39
2022-10-14T10:38:34.834Z,15.41
2022-10-14T10:39:34.911Z,15.41
2022-10-14T10:40:34.840Z,15.39
2022-10-14T10:41:34.765Z,15.38
2022-10-14T10:42:34.560Z,15.38
2022-10-14T10:43:34.554Z,15.35
2022-10-14T10:44:34.480Z,15.33
2022-10-14T10:45:36.623Z,15.35
2022-10-14T10:46:34.834Z,15.35
2022-10-14T10:47:34.761Z,15.38
2022-10-14T10:48:34.530Z,15.38
2022-10-14T10:49:34.692Z,15.36
2022-10-14T10:50:34.486Z,15.38
2022-10-14T10:51:34.457Z,15.41
2022-10-14T10:52:34.566Z,15.39
2022-10-14T10:53:34.583Z,15.39
2022-10-14T10:54:34.586Z,15.39
2022-10-14T10:55:34.551Z,15.38
2022-10-14T10:56:34.741Z,15.38
2022-10-14T10:57:34.752Z,15.35
2022-10-14T10:58:34.442Z,15.36
2022-10-14T10:59:34.324Z,15.38
2022-10-14T11:00:35.505Z,15.38
2022-10-14T11:01:34.508Z,15.38
2022-10-14T11:02:34.486Z,15.38
2022-10-14T11:03:34.861Z,15.38
2022-10-14T11:04:34.303Z,15.39
2022-10-14T11:05:34.281Z,15.42
2022-10-14T11:06:34.291Z,15.41
2022-10-14T11:07:34.252Z,15.41
2022-10-14T11:08:34.469Z,15.39
2022-10-14T11:09:34.329Z,15.41
2022-10-14T11:10:34.349Z,15.42
2022-10-14T11:11:34.373Z,15.43
2022-10-14T11:12:34.166Z,15.45
2022-10-14T11:13:34.363Z,15.46
2022-10-14T11:14:34.208Z,15.48
2022-10-14T11:15:34.296Z,15.46
2022-10-14T11:16:34.359Z,15.48
2022-10-14T11:17:34.221Z,15.49
2022-10-14T11:18:34.568Z,15.51
2022-10-14T11:19:34.146Z,15.49
2022-10-14T11:20:34.272Z,15.52
2022-10-14T11:21:34.175Z,15.51
2022-10-14T11:22:34.402Z,15.51
2022-10-14T11:23:34.119Z,15.48
2022-10-14T11:24:34.175Z,15.49
2022-10-14T11:25:34.067Z,15.49
2022-10-14T11:27:34.507Z,15.48
2022-10-14T11:28:34.134Z,15.51
2022-10-14T11:29:34.209Z,15.52
2022-10-14T11:30:34.071Z,15.54
2022-10-14T11:31:34.144Z,15.57
2022-10-14T11:32:34.628Z,15.57
2022-10-14T11:33:38.978Z,15.57
2022-10-14T11:34:34.185Z,15.57
2022-10-14T11:36:34.122Z,15.49
2022-10-14T11:37:34.337Z,15.45
2022-10-14T11:39:35.693Z,15.45
2022-10-14T11:40:34.224Z,15.43
2022-10-14T11:41:34.494Z,15.46
2022-10-14T11:42:33.925Z,15.46
2022-10-14T11:43:34.055Z,15.45
2022-10-14T11:45:34.062Z,15.41
2022-10-14T11:46:33.895Z,15.39
2022-10-14T11:47:33.888Z,15.38
2022-10-14T11:48:34.028Z,15.36
2022-10-14T11:49:33.988Z,15.36
2022-10-14T11:50:33.952Z,15.36
2022-10-14T11:51:35.868Z,15.33
2022-10-14T11:52:33.867Z,15.28
2022-10-14T11:53:34.067Z,15.27
2022-10-14T11:54:33.897Z,15.27
2022-10-14T11:55:33.854Z,15.24
2022-10-14T11:56:34.060Z,15.23
2022-10-14T11:57:33.922Z,15.20
2022-10-14T11:58:33.853Z,15.20
2022-10-14T11:59:33.927Z,15.17
2022-10-14T12:00:34.188Z,15.17
2022-10-14T12:01:37.241Z,15.17
2022-10-14T12:02:34.029Z,15.19
2022-10-14T12:03:34.215Z,15.17
2022-10-14T12:04:33.744Z,15.19
2022-10-14T12:05:33.700Z,15.19
2022-10-14T12:06:33.828Z,15.17
2022-10-14T12:07:33.815Z,15.19
2022-10-14T12:08:35.724Z,15.21
2022-10-14T12:09:34.088Z,15.21
2022-10-14T12:10:33.676Z,15.23
2022-10-14T12:11:33.845Z,15.23
2022-10-14T12:12:33.712Z,15.23
2022-10-14T12:13:33.780Z,15.26
2022-10-14T12:14:33.910Z,15.26
2022-10-14T12:15:34.245Z,15.28
2022-10-14T12:16:34.139Z,15.28
2022-10-14T12:17:33.968Z,15.33
2022-10-14T12:18:33.758Z,15.30
2022-10-14T12:19:33.528Z,15.33
2022-10-14T12:20:34.016Z,15.36
2022-10-14T12:21:34.005Z,15.39
2022-10-14T12:22:33.860Z,15.39
2022-10-14T12:23:33.624Z,15.41
2022-10-14T12:24:33.565Z,15.41
2022-10-14T12:25:33.649Z,15.43
2022-10-14T12:26:34.053Z,15.43
2022-10-14T12:27:33.845Z,15.45
2022-10-14T12:28:33.589Z,15.48
2022-10-14T12:29:33.536Z,15.48
2022-10-14T12:30:33.938Z,15.48
2022-10-14T12:31:33.932Z,15.49
2022-10-14T12:32:34.171Z,15.49
2022-10-14T12:33:33.606Z,15.49
2022-10-14T12:34:33.442Z,15.49
2022-10-14T12:35:33.461Z,15.49
2022-10-14T12:37:33.903Z,15.49
2022-10-14T12:38:33.857Z,15.46
2022-10-14T12:39:33.398Z,15.48
2022-10-14T12:40:33.506Z,15.46
2022-10-14T12:41:33.423Z,15.49
2022-10-14T12:42:33.410Z,15.49
2022-10-14T12:43:33.336Z,15.49
2022-10-14T12:44:33.415Z,15.51
2022-10-14T12:45:33.434Z,15.51
2022-10-14T12:46:33.377Z,15.49
2022-10-14T12:47:33.559Z,15.51
2022-10-14T12:48:33.267Z,15.51
2022-10-14T12:49:33.663Z,15.52
2022-10-14T12:50:33.370Z,15.52
2022-10-14T12:51:33.344Z,15.54
2022-10-14T12:52:33.340Z,15.56
2022-10-14T12:53:33.287Z,15.56
2022-10-14T12:54:33.184Z,15.54
2022-10-14T12:55:33.585Z,15.56
2022-10-14T12:56:33.203Z,15.57
2022-10-14T12:57:36.217Z,15.59
2022-10-14T12:58:33.218Z,15.57
2022-10-14T12:59:33.222Z,15.54